Time;durP1;ratioP1;P1;durP2;ratioP2;P2;SDS_P1;SDS_P2;PMS_P1;PMS_P2;Temp;Humidity;BMP_temperature;BMP_pressure;BME280_temperature;BME280_humidity;BME280_pressure;Samples;Min_cycle;Max_cycle;Signal;HPM_P1;HPM_P2
2021/12/10 00:00:41;;;;;;;9.67;6.97;;;3.50;99.90;;;;;;6183789;23;20067;-77
2021/12/10 00:03:11;;;;;;;11.50;8.10;;;3.40;99.90;;;;;;6183579;23;20036;-77
2021/12/10 00:05:48;;;;;;;12.30;8.98;;;3.40;99.90;;;;;;6183786;23;20017;-77
2021/12/10 00:08:15;;;;;;;14.35;8.82;;;3.40;99.90;;;;;;6183556;23;20043;-77
2021/12/10 00:10:48;;;;;;;17.30;9.48;;;3.30;99.90;;;;;;6181999;23;20005;-77
2021/12/10 00:13:15;;;;;;;19.70;10.17;;;3.30;99.90;;;;;;6181929;23;20016;-77
2021/12/10 00:15:42;;;;;;;15.97;10.30;;;3.30;99.90;;;;;;6182275;23;20012;-76
2021/12/10 00:18:17;;;;;;;15.13;10.55;;;3.30;99.90;;;;;;6181804;23;20001;-77
2021/12/10 00:20:45;;;;;;;15.30;9.50;;;3.40;99.90;;;;;;6182066;23;20337;-77
2021/12/10 00:23:15;;;;;;;16.80;10.07;;;3.40;99.90;;;;;;6181746;23;20005;-77
2021/12/10 00:25:47;;;;;;;15.50;9.97;;;3.40;99.90;;;;;;6181871;23;20008;-76
2021/12/10 00:28:21;;;;;;;15.93;9.68;;;3.40;99.90;;;;;;6182076;23;20029;-76
2021/12/10 00:34:10;;;;;;;17.03;11.30;;;3.20;99.90;;;;;;6159516;23;20401;-77
2021/12/10 00:36:36;;;;;;;17.17;10.93;;;3.20;99.90;;;;;;6183702;23;20005;-77
2021/12/10 00:39:10;;;;;;;17.30;11.00;;;3.30;99.90;;;;;;6181683;23;20450;-77
2021/12/10 00:41:36;;;;;;;17.53;10.57;;;3.30;99.90;;;;;;6182072;23;20568;-76
2021/12/10 00:44:02;;;;;;;16.37;11.13;;;3.30;99.90;;;;;;6181698;23;20433;-77
2021/12/10 00:46:28;;;;;;;17.67;10.80;;;3.30;99.90;;;;;;6181784;23;20001;-77
2021/12/10 00:48:54;;;;;;;17.17;10.63;;;3.20;99.90;;;;;;6182023;23;20040;-77
2021/12/10 00:51:19;;;;;;;16.40;11.10;;;3.20;99.90;;;;;;6181843;23;20032;-77
2021/12/10 00:53:47;;;;;;;18.70;10.77;;;3.10;99.90;;;;;;6181597;23;20372;-77
2021/12/10 00:56:13;;;;;;;17.40;9.47;;;3.10;99.90;;;;;;6181994;23;20055;-77
2021/12/10 00:58:39;;;;;;;5.77;4.77;;;3.10;99.90;;;;;;6183103;23;20377;-77
2021/12/10 01:01:12;;;;;;;6.10;5.10;;;3.10;99.90;;;;;;6183315;23;19997;-77
2021/12/10 01:03:43;;;;;;;16.10;9.27;;;3.10;99.90;;;;;;6182862;23;20052;-77
2021/12/10 01:06:12;;;;;;;17.20;11.05;;;3.10;99.90;;;;;;6181598;23;20009;-77
2021/12/10 01:08:41;;;;;;;23.90;12.90;;;3.10;99.90;;;;;;6181755;23;20016;-77
2021/12/10 01:11:22;;;;;;;21.17;11.33;;;3.10;99.90;;;;;;6183270;23;20047;-77
2021/12/10 01:13:53;;;;;;;16.60;10.27;;;3.10;99.90;;;;;;6181715;23;20013;-77
2021/12/10 01:24:38;;;;;;;18.57;12.47;;;2.90;99.90;;;;;;6183316;23;20015;-77
2021/12/10 01:27:25;;;;;;;17.47;10.83;;;2.90;99.90;;;;;;6181667;23;20011;-77
2021/12/10 01:29:56;;;;;;;16.17;10.37;;;2.80;99.90;;;;;;6183204;23;20175;-77
2021/12/10 01:32:25;;;;;;;11.17;7.07;;;2.80;99.90;;;;;;6183145;23;20001;-77
2021/12/10 01:34:51;;;;;;;10.00;7.43;;;2.80;99.90;;;;;;6183064;23;20012;-77
2021/12/10 01:37:17;;;;;;;13.23;9.47;;;2.80;99.90;;;;;;6183257;23;20032;-77
2021/12/10 01:39:44;;;;;;;13.67;8.80;;;2.80;99.90;;;;;;6184175;23;20005;-77
2021/12/10 01:42:35;;;;;;;15.50;9.93;;;2.80;99.90;;;;;;6184871;23;20080;-76
2021/12/10 01:45:05;;;;;;;14.27;9.47;;;2.80;99.90;;;;;;6185221;23;20005;-76
2021/12/10 01:47:35;;;;;;;15.07;9.07;;;2.70;99.90;;;;;;6183643;23;20486;-76
2021/12/10 01:50:03;;;;;;;13.87;8.47;;;2.70;99.90;;;;;;6184916;23;20055;-77
2021/12/10 01:52:28;;;;;;;13.00;8.83;;;2.70;99.90;;;;;;6184878;23;20029;-77
2021/12/10 01:54:58;;;;;;;13.00;7.93;;;2.70;99.90;;;;;;6183323;23;20055;-77
2021/12/10 01:57:27;;;;;;;12.00;8.13;;;2.80;99.90;;;;;;6184878;23;20001;-77
2021/12/10 01:59:53;;;;;;;10.63;7.77;;;2.80;99.90;;;;;;6184696;23;20037;-77
2021/12/10 02:02:26;;;;;;;11.87;7.63;;;2.80;99.90;;;;;;6184752;23;20024;-76
2021/12/10 02:04:52;;;;;;;10.97;7.10;;;2.80;99.90;;;;;;6184995;23;20013;-76
2021/12/10 02:07:21;;;;;;;12.27;7.03;;;2.80;99.90;;;;;;6184638;23;20311;-77
2021/12/10 02:09:48;;;;;;;9.30;6.90;;;2.90;99.90;;;;;;6184630;23;20087;-76
2021/12/10 02:12:15;;;;;;;9.53;7.77;;;2.90;99.90;;;;;;6183163;23;20393;-76
2021/12/10 02:14:42;;;;;;;12.97;8.03;;;2.90;99.90;;;;;;6184894;23;20449;-76
2021/12/10 02:17:08;;;;;;;13.50;8.10;;;2.90;99.90;;;;;;6184544;23;20008;-76
2021/12/10 02:19:35;;;;;;;13.63;9.17;;;2.80;99.90;;;;;;6183047;23;20005;-77
2021/12/10 02:22:03;;;;;;;14.63;8.93;;;2.80;99.90;;;;;;6184792;23;20001;-76
2021/12/10 02:24:28;;;;;;;14.50;8.80;;;2.80;99.90;;;;;;6184448;23;20001;-76
2021/12/10 02:26:58;;;;;;;16.50;9.90;;;2.70;99.90;;;;;;6182818;23;20009;-76
2021/12/10 02:29:27;;;;;;;18.07;10.83;;;2.70;99.90;;;;;;6184524;23;20433;-76
2021/12/10 02:31:54;;;;;;;19.57;10.80;;;2.70;99.90;;;;;;6184513;23;20445;-76
2021/12/10 02:34:20;;;;;;;21.50;11.73;;;2.70;99.90;;;;;;6183140;23;20009;-76
2021/12/10 02:36:46;;;;;;;21.93;12.53;;;2.70;99.90;;;;;;6182780;23;20075;-76
2021/12/10 02:39:16;;;;;;;20.73;11.93;;;2.80;99.90;;;;;;6184485;23;20481;-76
2021/12/10 02:41:42;;;;;;;20.30;11.50;;;2.80;99.90;;;;;;6184316;23;19997;-76
2021/12/10 02:44:12;;;;;;;21.13;11.67;;;2.80;99.90;;;;;;6183065;23;20008;-76
2021/12/10 02:46:38;;;;;;;18.47;11.53;;;2.70;99.90;;;;;;6184412;23;19997;-76
2021/12/10 02:49:06;;;;;;;20.57;11.17;;;2.70;99.90;;;;;;6182857;23;20015;-76
2021/12/10 02:51:33;;;;;;;19.70;11.73;;;2.60;99.90;;;;;;6184410;23;20430;-76
2021/12/10 02:53:59;;;;;;;18.30;11.33;;;2.60;99.90;;;;;;6184453;23;20429;-76
2021/12/10 02:56:25;;;;;;;17.70;11.07;;;2.50;99.90;;;;;;6184258;23;20004;-76
2021/12/10 02:58:54;;;;;;;17.13;10.37;;;2.40;99.90;;;;;;6182575;23;20012;-76
2021/12/10 03:01:27;;;;;;;17.80;11.47;;;2.50;99.90;;;;;;6184588;23;20000;-76
2021/12/10 03:03:53;;;;;;;15.17;10.33;;;2.50;99.90;;;;;;6183947;23;20092;-76
2021/12/10 03:06:20;;;;;;;18.13;11.63;;;2.50;99.90;;;;;;6182913;23;20373;-76
2021/12/10 03:08:48;;;;;;;19.27;11.40;;;2.30;99.90;;;;;;6184216;23;20569;-75
2021/12/10 03:11:17;;;;;;;15.03;9.30;;;2.40;99.90;;;;;;6182669;23;20453;-75
2021/12/10 03:13:42;;;;;;;9.40;5.90;;;2.40;99.90;;;;;;6184055;23;20089;-75
2021/12/10 03:16:09;;;;;;;12.97;8.10;;;2.40;99.90;;;;;;6184377;23;20004;-75
2021/12/10 03:18:35;;;;;;;11.70;8.23;;;2.40;99.90;;;;;;6183900;23;20101;-75
2021/12/10 03:21:02;;;;;;;11.87;8.27;;;2.30;99.90;;;;;;6182553;23;20005;-76
2021/12/10 03:23:28;;;;;;;10.93;7.13;;;2.20;99.90;;;;;;6184078;23;20001;-75
2021/12/10 03:25:54;;;;;;;8.03;5.80;;;2.20;99.90;;;;;;6182428;23;20084;-75
2021/12/10 03:28:20;;;;;;;7.70;5.53;;;2.30;99.90;;;;;;6184002;23;20001;-75
2021/12/10 03:30:51;;;;;;;8.80;5.10;;;2.30;99.90;;;;;;6182404;23;20035;-76
2021/12/10 03:33:18;;;;;;;2.43;2.23;;;2.30;99.90;;;;;;6184021;23;20091;-75
2021/12/10 03:35:46;;;;;;;1.40;1.30;;;2.30;99.90;;;;;;6184105;23;20341;-75
2021/12/10 03:38:16;;;;;;;1.77;1.40;;;2.40;99.90;;;;;;6182416;23;20088;-75
2021/12/10 03:40:43;;;;;;;3.07;2.77;;;2.60;99.90;;;;;;6182535;23;20341;-75
2021/12/10 03:43:09;;;;;;;4.03;3.63;;;2.60;99.90;;;;;;6182445;23;20001;-75
2021/12/10 03:45:39;;;;;;;6.13;4.67;;;2.50;99.90;;;;;;6184090;23;20508;-75
2021/12/10 03:48:17;;;;;;;6.77;5.40;;;2.50;99.90;;;;;;6184180;23;19997;-75
2021/12/10 03:50:44;;;;;;;8.80;5.10;;;2.40;99.90;;;;;;6182282;23;20005;-75
2021/12/10 03:53:11;;;;;;;5.27;4.50;;;2.40;99.90;;;;;;6183944;23;20009;-75
2021/12/10 03:55:37;;;;;;;4.97;4.23;;;2.40;99.90;;;;;;6184030;23;20001;-75
2021/12/10 03:58:04;;;;;;;5.03;4.53;;;2.30;99.90;;;;;;6184067;23;20607;-75
2021/12/10 04:00:34;;;;;;;6.57;4.60;;;2.30;99.90;;;;;;6184472;23;20047;-75
2021/12/10 04:03:01;;;;;;;5.83;4.93;;;2.40;99.90;;;;;;6184027;23;20013;-75
2021/12/10 04:05:27;;;;;;;5.70;4.73;;;2.40;99.90;;;;;;6184639;23;19995;-75
2021/12/10 04:07:54;;;;;;;5.00;4.50;;;2.40;99.90;;;;;;6184715;23;20001;-75
2021/12/10 04:10:21;;;;;;;6.37;5.50;;;2.20;99.90;;;;;;6184483;23;19997;-75
2021/12/10 04:12:47;;;;;;;6.20;5.20;;;2.20;99.90;;;;;;6183896;23;20001;-75
2021/12/10 04:15:13;;;;;;;5.53;5.00;;;2.10;99.90;;;;;;6183991;23;20068;-75
2021/12/10 04:17:39;;;;;;;5.20;4.40;;;2.10;99.90;;;;;;6183881;23;20001;-75
2021/12/10 04:20:07;;;;;;;4.53;4.03;;;2.10;99.90;;;;;;6182411;23;20095;-75
2021/12/10 04:22:33;;;;;;;2.40;2.20;;;2.20;99.90;;;;;;6182397;23;20005;-75
2021/12/10 04:25:02;;;;;;;2.83;2.00;;;2.20;99.90;;;;;;6183814;23;20332;-75
2021/12/10 04:27:28;;;;;;;4.40;3.57;;;2.40;99.90;;;;;;6183768;23;20012;-75
2021/12/10 04:29:57;;;;;;;2.30;0.80;;;2.30;99.90;;;;;;6183840;23;20005;-75
2021/12/10 04:32:24;;;;;;;2.90;2.70;;;2.40;99.90;;;;;;6181824;23;20441;-75
2021/12/10 04:34:50;;;;;;;3.67;2.90;;;2.40;99.90;;;;;;6183719;23;20222;-75
2021/12/10 04:37:16;;;;;;;4.80;3.60;;;2.50;99.90;;;;;;6183685;23;20012;-75
2021/12/10 04:39:48;;;;;;;5.20;3.80;;;2.40;99.90;;;;;;6183754;23;20080;-75
2021/12/10 04:42:16;;;;;;;5.60;3.58;;;2.30;99.90;;;;;;6182170;23;20085;-75
2021/12/10 04:44:42;;;;;;;2.30;2.10;;;2.30;99.90;;;;;;6182355;23;20059;-75
2021/12/10 04:47:09;;;;;;;1.03;1.03;;;2.30;99.90;;;;;;6182109;23;20581;-74
2021/12/10 04:49:35;;;;;;;2.37;1.27;;;2.40;99.90;;;;;;6182085;23;20055;-75
2021/12/10 04:52:01;;;;;;;0.87;0.87;;;2.50;99.90;;;;;;6181988;23;20426;-75
2021/12/10 04:54:27;;;;;;;0.63;0.63;;;2.60;99.90;;;;;;6183519;23;20060;-75
2021/12/10 04:56:57;;;;;;;1.30;0.63;;;2.60;99.90;;;;;;6181960;23;20028;-74
2021/12/10 04:59:24;;;;;;;2.77;1.90;;;2.70;99.90;;;;;;6183622;23;20381;-75
2021/12/10 05:01:53;;;;;;;4.33;2.17;;;2.70;99.90;;;;;;6183551;23;19997;-75
2021/12/10 05:04:19;;;;;;;3.87;3.57;;;2.70;99.90;;;;;;6183474;23;20483;-74
2021/12/10 05:06:45;;;;;;;7.87;3.70;;;2.60;99.90;;;;;;6181876;23;20353;-75
2021/12/10 05:09:12;;;;;;;4.50;4.10;;;2.50;99.90;;;;;;6183556;23;20001;-75
2021/12/10 05:11:39;;;;;;;8.17;5.20;;;2.50;99.90;;;;;;6183485;23;20338;-75
2021/12/10 05:14:06;;;;;;;11.80;6.63;;;2.50;99.90;;;;;;6183814;23;20008;-74
2021/12/10 05:16:33;;;;;;;11.93;6.93;;;2.40;99.90;;;;;;6183742;23;20015;-74
2021/12/10 05:19:01;;;;;;;13.87;8.63;;;2.40;99.90;;;;;;6183860;23;20035;-75
2021/12/10 05:21:29;;;;;;;14.13;9.37;;;2.30;99.90;;;;;;6185176;23;20004;-75
2021/12/10 05:23:56;;;;;;;16.43;10.13;;;2.20;99.90;;;;;;6183786;23;20082;-74
2021/12/10 05:26:22;;;;;;;15.83;9.83;;;2.10;99.90;;;;;;6185358;23;20337;-74
2021/12/10 05:28:48;;;;;;;13.73;9.20;;;2.00;99.90;;;;;;6183723;23;20028;-75
2021/12/10 05:31:14;;;;;;;16.23;10.23;;;2.00;99.90;;;;;;6185154;23;20008;-75
2021/12/10 05:33:40;;;;;;;18.10;10.23;;;1.90;99.90;;;;;;6185132;23;20059;-74
2021/12/10 05:36:07;;;;;;;15.10;10.63;;;1.90;99.90;;;;;;6183661;23;20033;-74
2021/12/10 05:38:33;;;;;;;14.73;10.40;;;1.90;99.90;;;;;;6183700;23;20012;-74
2021/12/10 05:41:00;;;;;;;16.17;10.53;;;1.80;99.90;;;;;;6183397;23;20041;-75
2021/12/10 05:43:26;;;;;;;15.70;10.53;;;1.80;99.90;;;;;;6185041;23;20056;-74
2021/12/10 05:45:52;;;;;;;12.13;10.03;;;1.80;99.90;;;;;;6185167;23;20442;-75
2021/12/10 05:48:19;;;;;;;15.43;10.70;;;1.70;99.90;;;;;;6184975;23;20001;-74
2021/12/10 05:50:47;;;;;;;14.83;10.60;;;1.70;99.90;;;;;;6183406;23;20013;-74
2021/12/10 05:53:13;;;;;;;16.87;11.33;;;1.80;99.90;;;;;;6183463;23;20009;-74
2021/12/10 05:55:41;;;;;;;13.73;9.97;;;1.70;99.90;;;;;;6183440;23;20322;-74
2021/12/10 05:58:08;;;;;;;13.90;10.17;;;1.70;99.90;;;;;;6184773;23;20373;-74
2021/12/10 06:00:38;;;;;;;13.83;9.43;;;1.70;99.90;;;;;;6183343;23;20001;-74
2021/12/10 06:03:05;;;;;;;14.87;8.77;;;1.70;99.90;;;;;;6182984;23;20067;-74
2021/12/10 06:05:32;;;;;;;14.33;9.47;;;1.60;99.90;;;;;;6185043;23;19996;-74
2021/12/10 06:07:58;;;;;;;12.90;9.07;;;1.50;99.90;;;;;;6183311;23;20139;-74
2021/12/10 06:10:24;;;;;;;14.00;9.90;;;1.50;99.90;;;;;;6183117;23;20052;-74
2021/12/10 06:12:51;;;;;;;11.40;9.00;;;1.50;99.90;;;;;;6184884;23;20005;-74
2021/12/10 06:15:20;;;;;;;13.70;9.50;;;1.40;99.90;;;;;;6184937;23;20421;-74
2021/12/10 06:17:47;;;;;;;13.80;10.03;;;1.50;99.90;;;;;;6182851;23;20397;-74
2021/12/10 06:20:17;;;;;;;11.73;9.07;;;1.50;99.90;;;;;;6182898;23;20184;-74
2021/12/10 06:22:44;;;;;;;11.80;9.23;;;1.50;99.90;;;;;;6184521;23;19997;-74
2021/12/10 06:25:10;;;;;;;10.77;8.23;;;1.50;99.90;;;;;;6184629;23;20005;-74
2021/12/10 06:27:38;;;;;;;15.20;9.10;;;1.60;99.90;;;;;;6184787;23;19997;-76
2021/12/10 06:30:06;;;;;;;13.20;8.50;;;1.50;99.90;;;;;;6184327;23;20332;-74
2021/12/10 06:32:31;;;;;;;10.10;7.40;;;1.50;99.90;;;;;;6184503;23;20009;-74
2021/12/10 06:34:57;;;;;;;11.77;7.70;;;1.60;99.90;;;;;;6184464;23;20448;-74
2021/12/10 06:37:23;;;;;;;13.80;8.30;;;1.60;99.90;;;;;;6184573;23;20005;-74
2021/12/10 06:39:49;;;;;;;9.33;6.93;;;1.60;99.90;;;;;;6184442;23;20410;-74
2021/12/10 06:42:14;;;;;;;9.27;6.43;;;1.70;99.90;;;;;;6184610;23;20075;-74
2021/12/10 06:44:40;;;;;;;9.57;6.60;;;1.60;99.90;;;;;;6184396;23;20152;-75
2021/12/10 06:47:08;;;;;;;7.43;6.07;;;1.60;99.90;;;;;;6184428;23;20001;-75
2021/12/10 06:49:34;;;;;;;8.67;6.47;;;1.70;99.90;;;;;;6184591;23;20005;-74
2021/12/10 06:52:01;;;;;;;7.30;6.57;;;1.70;99.90;;;;;;6184222;23;20012;-74
2021/12/10 06:54:29;;;;;;;10.43;7.57;;;1.70;99.90;;;;;;6182790;23;20386;-74
2021/12/10 06:56:56;;;;;;;10.73;7.90;;;1.70;99.90;;;;;;6182902;23;20511;-75
2021/12/10 06:59:26;;;;;;;11.53;8.50;;;1.70;99.90;;;;;;6185715;23;20005;-74
2021/12/10 07:01:53;;;;;;;13.10;9.50;;;1.70;99.90;;;;;;6185532;23;20337;-74
2021/12/10 07:04:19;;;;;;;15.53;11.10;;;1.80;99.90;;;;;;6185605;23;20323;-74
2021/12/10 07:06:47;;;;;;;20.73;12.37;;;1.80;99.90;;;;;;6183774;23;20004;-74
2021/12/10 07:09:17;;;;;;;19.23;11.33;;;1.80;99.90;;;;;;6184105;23;20012;-74
2021/12/10 07:11:44;;;;;;;13.27;10.17;;;1.90;99.90;;;;;;6183836;23;20594;-74
2021/12/10 07:14:10;;;;;;;17.73;12.03;;;1.80;99.90;;;;;;6185509;23;20012;-74
2021/12/10 07:16:36;;;;;;;19.07;13.63;;;1.80;99.90;;;;;;6185361;23;20517;-74
2021/12/10 07:19:05;;;;;;;20.20;11.73;;;1.80;99.90;;;;;;6185522;23;20005;-75
2021/12/10 07:21:33;;;;;;;14.33;8.27;;;1.90;99.90;;;;;;6185576;23;20001;-75
2021/12/10 07:24:03;;;;;;;12.37;7.80;;;1.90;99.90;;;;;;6185769;23;20485;-74
2021/12/10 07:26:30;;;;;;;5.77;5.30;;;2.00;99.90;;;;;;6183893;23;20358;-75
2021/12/10 07:28:57;;;;;;;6.80;6.20;;;2.10;99.90;;;;;;6185580;23;20001;-75
2021/12/10 07:31:23;;;;;;;6.83;6.23;;;2.30;99.90;;;;;;6185140;23;20001;-75
2021/12/10 07:33:49;;;;;;;6.43;5.70;;;2.40;99.90;;;;;;6185628;23;20001;-75
2021/12/10 07:36:15;;;;;;;3.67;3.40;;;2.50;99.90;;;;;;6183653;23;20019;-75
2021/12/10 07:38:42;;;;;;;3.43;2.30;;;2.60;99.90;;;;;;6185574;23;21159;-76
2021/12/10 07:41:08;;;;;;;1.90;1.70;;;2.60;99.90;;;;;;6185352;23;20067;-75
2021/12/10 07:43:38;;;;;;;1.90;1.80;;;2.70;99.90;;;;;;6184061;23;20437;-75
2021/12/10 07:46:05;;;;;;;2.20;1.70;;;2.80;99.90;;;;;;6185483;23;20037;-75
2021/12/10 07:48:34;;;;;;;2.13;1.93;;;2.80;99.90;;;;;;6184014;23;20032;-75
2021/12/10 07:51:06;;;;;;;2.13;1.93;;;2.80;99.90;;;;;;6183864;23;20005;-76
2021/12/10 07:53:33;;;;;;;;;;;2.90;99.90;;;;;;6184676;23;20005;-75
2021/12/10 07:56:02;;;;;;;2.47;2.20;;;2.90;99.90;;;;;;6183926;23;20240;-76
2021/12/10 07:58:29;;;;;;;2.40;2.20;;;3.00;99.90;;;;;;6183805;23;20029;-76
2021/12/10 08:00:56;;;;;;;2.80;2.20;;;3.00;99.90;;;;;;6184772;23;20001;-76
2021/12/10 08:03:22;;;;;;;4.33;2.70;;;3.10;99.90;;;;;;6183802;23;20351;-75
2021/12/10 08:05:50;;;;;;;4.40;4.07;;;3.20;99.90;;;;;;6185303;23;19997;-76
2021/12/10 08:08:16;;;;;;;2.90;2.67;;;3.20;99.90;;;;;;6185220;23;20084;-75
2021/12/10 08:10:46;;;;;;;2.70;2.50;;;3.30;99.90;;;;;;6185078;23;20043;-76
2021/12/10 08:13:13;;;;;;;3.37;3.07;;;3.30;99.90;;;;;;6185117;23;20053;-75
2021/12/10 08:15:38;;;;;;;5.67;3.00;;;3.40;99.90;;;;;;6180263;23;20028;-79
2021/12/10 08:18:05;;;;;;;4.60;2.50;;;3.50;99.90;;;;;;6181171;23;20036;-79
2021/12/10 08:20:33;;;;;;;5.27;3.90;;;3.50;99.90;;;;;;6179665;23;20020;-79
2021/12/10 08:22:59;;;;;;;5.93;4.63;;;3.60;99.90;;;;;;6179413;23;20005;-79
2021/12/10 08:25:27;;;;;;;7.63;5.43;;;3.60;99.90;;;;;;6180698;23;20311;-79
2021/12/10 08:27:53;;;;;;;7.87;5.20;;;3.50;99.90;;;;;;6183078;23;20005;-80
2021/12/10 08:30:21;;;;;;;8.27;5.77;;;3.50;99.90;;;;;;6183579;23;20001;-79
2021/12/10 08:32:47;;;;;;;8.13;5.80;;;3.50;99.90;;;;;;6183427;23;20088;-79
2021/12/10 08:35:19;;;;;;;8.47;6.07;;;3.50;99.90;;;;;;6181795;23;20005;-79
2021/12/10 08:37:46;;;;;;;;;;;3.60;99.90;;;;;;6182316;23;20096;-80
2021/12/10 08:40:17;;;;;;;9.73;5.63;;;3.60;99.90;;;;;;6183417;23;19987;-79
2021/12/10 08:42:43;;;;;;;7.40;5.47;;;3.60;99.90;;;;;;6183550;23;20001;-79
2021/12/10 08:45:09;;;;;;;6.67;4.90;;;3.60;99.90;;;;;;6183436;23;20001;-79
2021/12/10 08:47:35;;;;;;;6.17;5.23;;;3.70;99.90;;;;;;6183372;23;20008;-79
2021/12/10 08:50:03;;;;;;;8.73;5.50;;;3.70;99.90;;;;;;6183625;23;20005;-80
2021/12/10 08:52:29;;;;;;;6.80;5.33;;;3.80;99.90;;;;;;6185485;23;20434;-80
2021/12/10 08:54:54;;;;;;;8.60;6.10;;;3.80;99.90;;;;;;6185602;23;20084;-80
2021/12/10 08:57:22;;;;;;;10.23;7.10;;;3.90;99.90;;;;;;6185522;23;20032;-80
2021/12/10 08:59:48;;;;;;;11.80;7.70;;;3.90;99.90;;;;;;6183741;23;20016;-80
2021/12/10 09:02:15;;;;;;;10.73;8.33;;;3.90;99.90;;;;;;6184970;23;20005;-79
2021/12/10 09:04:41;;;;;;;12.67;9.60;;;4.00;99.90;;;;;;6185294;23;20020;-79
2021/12/10 09:07:11;;;;;;;18.93;12.37;;;4.00;99.90;;;;;;6183507;23;20006;-80
2021/12/10 09:09:41;;;;;;;23.30;13.90;;;4.00;99.90;;;;;;6185243;23;20001;-80
2021/12/10 09:12:12;;;;;;;15.87;8.73;;;4.10;99.90;;;;;;6185235;23;20076;-80
2021/12/10 09:14:44;;;;;;;10.30;7.90;;;4.10;99.90;;;;;;6183793;23;20005;-80
2021/12/10 09:17:11;;;;;;;10.00;7.57;;;4.10;99.90;;;;;;6183585;23;20016;-80
2021/12/10 09:19:40;;;;;;;15.90;9.50;;;4.10;99.90;;;;;;6185166;23;20001;-80
2021/12/10 09:22:07;;;;;;;12.27;9.27;;;4.20;99.90;;;;;;6183549;23;20056;-80
2021/12/10 09:24:33;;;;;;;14.40;9.10;;;4.20;99.90;;;;;;6185133;23;19997;-80
2021/12/10 09:27:00;;;;;;;16.00;8.37;;;4.20;99.90;;;;;;6185112;23;20004;-80
2021/12/10 09:29:31;;;;;;;14.38;8.80;;;4.20;99.90;;;;;;6185000;23;20007;-80
2021/12/10 09:31:58;;;;;;;15.10;8.85;;;4.20;99.90;;;;;;6184797;23;19997;-81
2021/12/10 09:34:24;;;;;;;11.23;7.57;;;4.20;99.90;;;;;;6184654;23;20001;-80
2021/12/10 09:36:52;;;;;;;15.10;8.57;;;4.20;99.90;;;;;;6183308;23;20060;-80
2021/12/10 09:39:19;;;;;;;13.75;9.30;;;4.20;99.90;;;;;;6182922;23;20385;-80
2021/12/10 09:41:46;;;;;;;11.73;9.43;;;4.30;99.90;;;;;;6184706;23;20039;-81
2021/12/10 09:44:12;;;;;;;18.77;11.65;;;4.30;99.90;;;;;;6183350;23;20001;-81
2021/12/10 09:46:39;;;;;;;14.60;11.02;;;4.40;99.90;;;;;;6183558;23;20028;-81
2021/12/10 09:49:07;;;;;;;18.05;11.88;;;4.40;99.90;;;;;;6184933;23;20055;-81
2021/12/10 09:51:47;;;;;;;16.10;11.13;;;4.50;99.90;;;;;;6185040;23;20001;-81
2021/12/10 09:54:17;;;;;;;20.77;12.10;;;4.50;99.90;;;;;;6184811;23;20080;-81
2021/12/10 09:56:47;;;;;;;16.55;10.75;;;4.50;99.90;;;;;;6184754;23;20376;-81
2021/12/10 09:59:15;;;;;;;18.05;11.07;;;4.50;99.90;;;;;;6183102;23;20016;-81
2021/12/10 10:01:44;;;;;;;15.68;9.80;;;4.50;99.90;;;;;;6182941;23;20417;-81
2021/12/10 10:04:15;;;;;;;15.77;9.70;;;4.50;99.90;;;;;;6184721;23;20017;-81
2021/12/10 10:07:01;;;;;;;15.35;10.05;;;4.50;99.90;;;;;;6183363;23;20005;-81
2021/12/10 10:09:27;;;;;;;14.48;9.68;;;4.50;99.90;;;;;;6184715;23;20140;-81
2021/12/10 10:11:59;;;;;;;11.48;8.63;;;4.50;99.90;;;;;;6183543;23;20001;-81
2021/12/10 10:14:27;;;;;;;16.40;9.70;;;4.50;99.90;;;;;;6183570;23;20001;-81
2021/12/10 10:16:54;;;;;;;16.17;10.23;;;4.50;99.90;;;;;;6184880;23;20036;-81
2021/12/10 10:19:20;;;;;;;15.52;10.35;;;4.60;99.90;;;;;;6184366;23;20500;-81
2021/12/10 10:21:50;;;;;;;13.93;9.45;;;4.60;99.90;;;;;;6184259;23;20029;-81
2021/12/10 10:24:18;;;;;;;12.02;8.32;;;4.60;99.90;;;;;;6181518;23;20001;-81
2021/12/10 10:26:54;;;;;;;13.70;8.82;;;4.70;99.90;;;;;;6184555;23;20008;-81
2021/12/10 10:29:21;;;;;;;11.55;9.02;;;4.70;99.90;;;;;;6184453;23;20076;-81
2021/12/10 10:31:54;;;;;;;16.70;10.02;;;4.70;99.90;;;;;;6182820;23;20458;-81
2021/12/10 10:34:21;;;;;;;15.65;9.88;;;4.70;99.90;;;;;;6182960;23;20031;-81
2021/12/10 10:36:47;;;;;;;14.07;8.85;;;4.70;99.90;;;;;;6182998;23;20020;-81
2021/12/10 10:39:34;;;;;;;12.40;8.40;;;4.70;99.90;;;;;;6184330;23;20052;-81
2021/12/10 10:42:05;;;;;;;15.38;9.20;;;4.70;99.90;;;;;;6184296;23;19997;-81
2021/12/10 10:44:31;;;;;;;11.93;9.00;;;4.70;99.90;;;;;;6184323;23;20001;-81
2021/12/10 10:46:59;;;;;;;13.23;8.93;;;4.80;99.90;;;;;;6182834;23;20430;-81
2021/12/10 10:49:59;;;;;;;11.27;7.45;;;4.80;99.90;;;;;;6182889;23;20059;-81
2021/12/10 10:52:33;;;;;;;12.98;9.60;;;4.90;99.90;;;;;;6183639;23;20345;-81
2021/12/10 10:55:15;;;;;;;15.00;9.63;;;4.90;99.90;;;;;;6184279;23;20009;-81
2021/12/10 10:57:53;;;;;;;13.30;8.65;;;5.00;99.90;;;;;;6184517;23;20005;-81
2021/12/10 11:00:29;;;;;;;11.55;7.72;;;5.00;99.90;;;;;;6182448;23;20013;-81
2021/12/10 11:03:02;;;;;;;11.60;7.30;;;5.00;99.90;;;;;;6182528;23;20012;-81
2021/12/10 11:05:29;;;;;;;9.80;7.65;;;5.10;99.90;;;;;;6184492;23;19997;-81
2021/12/10 11:07:59;;;;;;;10.30;7.60;;;5.10;99.90;;;;;;6182618;23;20145;-81
2021/12/10 11:10:41;;;;;;;12.32;8.32;;;5.20;99.90;;;;;;6184094;23;20253;-81
2021/12/10 11:13:20;;;;;;;17.02;8.25;;;5.20;99.90;;;;;;6183451;23;20087;-81
2021/12/10 11:16:03;;;;;;;23.15;12.88;;;5.30;99.90;;;;;;6184285;23;20005;-81
2021/12/10 11:19:04;;;;;;;16.95;9.00;;;5.30;99.90;;;;;;6182340;23;20047;-81
2021/12/10 11:21:49;;;;;;;12.70;8.43;;;5.30;99.90;;;;;;6167840;23;20001;-81
2021/12/10 11:24:26;;;;;;;12.98;7.63;;;5.40;99.90;;;;;;6183856;23;20031;-81
2021/12/10 11:27:00;;;;;;;15.52;9.73;;;5.40;99.90;;;;;;6184338;23;20080;-81
2021/12/10 11:29:51;;;;;;;17.30;11.35;;;5.50;99.90;;;;;;6182505;23;20389;-81
2021/12/10 11:32:41;;;;;;;16.05;8.57;;;5.50;99.90;;;;;;6183726;23;20156;-81
2021/12/10 11:35:18;;;;;;;9.25;6.65;;;5.50;99.90;;;;;;6183932;23;20384;-81
2021/12/10 11:37:55;;;;;;;9.90;6.55;;;5.60;99.90;;;;;;6184123;23;20084;-80
2021/12/10 11:40:49;;;;;;;7.97;5.78;;;5.60;99.90;;;;;;6183752;23;20012;-81
2021/12/10 11:48:40;;;;;;;6.35;4.97;;;5.70;99.90;;;;;;6167155;23;20009;-81
2021/12/10 11:51:10;;;;;;;5.88;5.28;;;5.80;99.90;;;;;;6183659;23;20001;-81
2021/12/10 11:54:01;;;;;;;12.13;8.07;;;5.80;99.90;;;;;;6183852;23;20035;-81
2021/12/10 11:56:47;;;;;;;10.10;6.57;;;5.90;99.90;;;;;;6182109;23;20153;-81
2021/12/10 11:59:27;;;;;;;9.90;6.60;;;5.90;99.90;;;;;;6156447;23;20055;-81
2021/12/10 12:02:21;;;;;;;7.10;5.30;;;5.90;99.90;;;;;;6182187;23;20091;-81
2021/12/10 12:04:53;;;;;;;5.93;4.32;;;6.00;99.90;;;;;;6179786;23;20480;-81
2021/12/10 12:07:30;;;;;;;4.15;3.63;;;6.00;99.90;;;;;;6183622;23;20004;-81
2021/12/10 12:10:20;;;;;;;3.55;2.85;;;6.00;99.90;;;;;;6183795;23;20008;-81
2021/12/10 12:12:55;;;;;;;6.90;3.85;;;6.00;99.90;;;;;;6181995;23;20062;-81
2021/12/10 12:15:24;;;;;;;16.83;7.20;;;6.10;99.90;;;;;;6182075;23;20009;-81
2021/12/10 12:18:22;;;;;;;15.73;7.38;;;6.00;99.90;;;;;;6181836;23;20024;-81
2021/12/10 12:20:52;;;;;;;13.55;8.75;;;6.00;99.90;;;;;;6181918;23;20315;-81
2021/12/10 12:26:25;;;;;;;23.08;9.38;;;5.90;99.90;;;;;;6183389;23;20012;-81
2021/12/10 12:29:04;;;;;;;15.32;9.30;;;5.80;99.90;;;;;;6181781;23;20009;-81
2021/12/10 12:31:33;;;;;;;13.90;9.02;;;5.70;99.90;;;;;;6181761;23;20005;-81
2021/12/10 12:34:18;;;;;;;23.90;10.38;;;5.70;99.90;;;;;;6183285;23;20433;-81
2021/12/10 12:37:00;;;;;;;19.73;12.70;;;5.70;99.90;;;;;;6181712;23;20104;-81
2021/12/10 12:39:43;;;;;;;26.23;13.65;;;5.70;99.90;;;;;;6181792;23;20005;-81
2021/12/10 12:42:36;;;;;;;22.67;11.10;;;5.70;99.90;;;;;;6183505;23;20330;-81
2021/12/10 12:45:12;;;;;;;17.88;9.98;;;5.80;99.90;;;;;;6178919;23;20005;-81
2021/12/10 12:47:47;;;;;;;16.38;10.38;;;5.80;99.90;;;;;;6183682;23;20073;-81
2021/12/10 12:50:28;;;;;;;20.50;10.00;;;5.70;99.90;;;;;;6181914;23;20008;-80
2021/12/10 12:52:58;;;;;;;19.85;10.50;;;5.80;99.90;;;;;;6183315;23;20011;-81
2021/12/10 12:55:26;;;;;;;20.40;10.85;;;5.80;99.90;;;;;;6183491;23;20430;-81
2021/12/10 12:58:10;;;;;;;5.88;4.97;;;5.80;99.90;;;;;;6183209;23;20031;-81
2021/12/10 13:01:14;;;;;;;4.93;4.07;;;5.80;99.90;;;;;;6183144;23;20028;-81
2021/12/10 13:03:46;;;;;;;2.80;2.60;;;5.80;99.90;;;;;;6162001;23;20017;-81
2021/12/10 13:06:22;;;;;;;2.80;2.60;;;5.90;99.90;;;;;;6183097;23;19997;-81
2021/12/10 13:09:18;;;;;;;2.40;2.20;;;5.90;99.90;;;;;;6181909;23;20032;-81
2021/12/10 13:12:05;;;;;;;2.30;2.10;;;5.90;99.90;;;;;;6141555;23;20349;-81
2021/12/10 13:14:45;;;;;;;4.45;2.85;;;5.90;99.90;;;;;;6183177;23;20008;-81
2021/12/10 13:17:13;;;;;;;4.13;3.70;;;5.90;99.90;;;;;;6181716;23;20005;-82
2021/12/10 13:19:39;;;;;;;3.45;3.15;;;6.00;99.90;;;;;;6181719;23;20013;-81
2021/12/10 13:22:13;;;;;;;2.78;2.58;;;5.90;99.90;;;;;;6183238;23;20051;-81